createdAt,value
2023-04-15T00:00:56.190Z,58.97
2023-04-15T00:03:22.938Z,60.60
2023-04-15T00:05:49.617Z,62.65
2023-04-15T00:08:16.124Z,66.97
2023-04-15T00:10:44.263Z,65.10
2023-04-15T00:13:10.750Z,64.32
2023-04-15T00:15:37.747Z,63.85
2023-04-15T00:18:04.510Z,70.55
2023-04-15T00:20:31.422Z,66.72
2023-04-15T00:22:59.483Z,69.15
2023-04-15T00:25:26.251Z,68.30
2023-04-15T00:27:52.670Z,68.43
2023-04-15T00:30:19.710Z,70.97
2023-04-15T00:32:46.855Z,71.07
2023-04-15T00:35:13.856Z,71.70
2023-04-15T00:37:40.576Z,74.65
2023-04-15T00:40:12.377Z,69.85
2023-04-15T00:42:39.490Z,71.57
2023-04-15T00:45:07.157Z,76.65
2023-04-15T00:47:35.616Z,74.82
2023-04-15T00:50:02.247Z,71.72
2023-04-15T00:52:28.787Z,77.28
2023-04-15T00:54:56.088Z,84.05
2023-04-15T00:57:22.878Z,80.05
2023-04-15T00:59:49.937Z,76.90
2023-04-15T01:02:17.017Z,76.45
2023-04-15T01:04:43.587Z,79.75
2023-04-15T01:07:22.641Z,84.55
2023-04-15T01:09:49.204Z,85.13
2023-04-15T01:12:17.259Z,82.63
2023-04-15T01:14:43.925Z,85.93
2023-04-15T01:17:10.394Z,88.45
2023-04-15T01:19:37.229Z,86.65
2023-04-15T01:22:04.188Z,80.57
2023-04-15T01:24:32.322Z,85.80
2023-04-15T01:26:59.305Z,86.70
2023-04-15T01:29:25.872Z,88.15
2023-04-15T01:31:53.876Z,89.72
2023-04-15T01:34:21.021Z,90.55
2023-04-15T01:36:47.850Z,86.43
2023-04-15T01:39:15.033Z,85.57
2023-04-15T01:41:42.393Z,86.05
2023-04-15T01:44:09.192Z,89.82
2023-04-15T01:46:36.355Z,92.07
2023-04-15T01:49:03.288Z,96.68
2023-04-15T01:51:29.935Z,95.25
2023-04-15T01:53:58.975Z,98.97
2023-04-15T01:56:25.534Z,96.28
2023-04-15T01:58:52.713Z,95.88
2023-04-15T02:01:22.314Z,95.68
2023-04-15T02:03:49.100Z,95.10
2023-04-15T02:06:15.999Z,91.93
2023-04-15T02:08:42.606Z,94.57
2023-04-15T02:11:09.336Z,93.55
2023-04-15T02:13:36.323Z,94.47
2023-04-15T02:16:03.557Z,90.00
2023-04-15T02:18:30.246Z,95.60
2023-04-15T02:20:58.462Z,97.03
2023-04-15T02:23:25.442Z,91.57
2023-04-15T02:25:53.792Z,95.68
2023-04-15T02:28:21.582Z,95.32
2023-04-15T02:30:53.054Z,97.85
2023-04-15T02:33:21.443Z,104.53
2023-04-15T02:35:47.996Z,96.50
2023-04-15T02:38:16.832Z,93.07
2023-04-15T02:40:43.582Z,103.13
2023-04-15T02:43:10.051Z,100.43
2023-04-15T02:45:36.567Z,102.90
2023-04-15T02:48:06.307Z,103.25
2023-04-15T02:50:33.515Z,105.63
2023-04-15T02:53:01.560Z,101.20
2023-04-15T02:55:28.844Z,97.35
2023-04-15T02:57:56.149Z,104.93
2023-04-15T03:00:25.293Z,101.03
2023-04-15T03:02:56.567Z,101.97
2023-04-15T03:05:26.182Z,95.90
2023-04-15T03:07:53.084Z,93.57
2023-04-15T03:10:20.232Z,95.28
2023-04-15T03:12:46.816Z,91.78
2023-04-15T03:15:13.369Z,96.97
2023-04-15T03:17:40.164Z,93.38
2023-04-15T03:20:07.393Z,100.78
2023-04-15T03:22:34.140Z,90.30
2023-04-15T03:25:00.644Z,92.95
2023-04-15T03:27:27.113Z,86.28
2023-04-15T03:29:53.588Z,87.68
2023-04-15T03:32:20.385Z,94.22
2023-04-15T03:34:46.858Z,87.60
2023-04-15T03:37:13.560Z,90.05
2023-04-15T03:39:40.226Z,86.07
2023-04-15T03:42:06.773Z,86.55
2023-04-15T03:44:33.226Z,85.65
2023-04-15T03:46:59.898Z,90.47
2023-04-15T03:49:26.713Z,85.97
2023-04-15T03:51:53.338Z,87.80
2023-04-15T03:54:19.997Z,92.63
2023-04-15T03:56:46.618Z,82.32
2023-04-15T03:59:13.223Z,84.28
2023-04-15T04:01:39.724Z,79.05
2023-04-15T04:04:06.829Z,73.50
2023-04-15T04:06:33.738Z,79.30
2023-04-15T04:09:01.781Z,79.90
2023-04-15T04:11:28.557Z,78.70
2023-04-15T04:13:55.333Z,76.82
2023-04-15T04:16:21.939Z,80.97
2023-04-15T04:18:48.506Z,76.00
2023-04-15T04:21:15.141Z,78.72
2023-04-15T04:23:41.725Z,72.53
2023-04-15T04:26:08.199Z,87.35
2023-04-15T04:28:35.452Z,73.03
2023-04-15T04:31:02.349Z,72.75
2023-04-15T04:33:28.922Z,77.53
2023-04-15T04:35:55.566Z,72.20
2023-04-15T04:38:22.252Z,66.75
2023-04-15T04:40:49.041Z,74.88
2023-04-15T04:43:16.078Z,68.20
2023-04-15T04:45:43.159Z,66.72
2023-04-15T04:48:10.578Z,69.72
2023-04-15T04:50:37.128Z,63.78
2023-04-15T04:53:03.928Z,66.15
2023-04-15T04:55:31.918Z,66.05
2023-04-15T04:57:58.405Z,69.13
2023-04-15T05:00:25.362Z,60.28
2023-04-15T05:02:52.311Z,59.35
2023-04-15T05:05:19.021Z,59.53
2023-04-15T05:07:45.605Z,65.72
2023-04-15T05:10:12.091Z,55.42
2023-04-15T05:12:38.733Z,59.83
2023-04-15T05:15:06.631Z,57.30
2023-04-15T05:17:35.325Z,55.92
2023-04-15T05:20:03.436Z,52.25
2023-04-15T05:22:30.266Z,56.13
2023-04-15T05:24:58.220Z,55.30
2023-04-15T05:27:25.059Z,53.85
2023-04-15T05:29:51.652Z,49.47
2023-04-15T05:32:18.267Z,51.63
2023-04-15T05:34:44.923Z,47.65
2023-04-15T05:37:11.740Z,49.50
2023-04-15T05:39:38.280Z,50.83
2023-04-15T05:42:06.016Z,46.00
2023-04-15T05:44:32.877Z,40.88
2023-04-15T05:46:59.423Z,46.38
2023-04-15T05:49:26.142Z,41.75
2023-04-15T05:51:52.837Z,39.20
2023-04-15T05:54:20.318Z,38.75
2023-04-15T05:56:46.926Z,39.95
2023-04-15T05:59:13.369Z,40.25
2023-04-15T06:01:40.418Z,34.72
2023-04-15T06:04:07.063Z,38.47
2023-04-15T06:06:33.667Z,34.97
2023-04-15T06:09:00.709Z,39.03
2023-04-15T06:11:27.613Z,35.17
2023-04-15T06:13:55.529Z,32.90
2023-04-15T06:16:23.191Z,36.33
2023-04-15T06:18:49.648Z,32.15
2023-04-15T06:21:16.440Z,32.38
2023-04-15T06:23:42.903Z,36.80
2023-04-15T06:26:09.528Z,31.40
2023-04-15T06:28:36.153Z,35.33
2023-04-15T06:31:03.465Z,31.05
2023-04-15T06:33:29.968Z,29.85
2023-04-15T06:35:56.487Z,30.13
2023-04-15T06:38:23.030Z,29.42
2023-04-15T06:40:49.546Z,32.00
2023-04-15T06:43:16.030Z,31.60
2023-04-15T06:45:42.542Z,28.45
2023-04-15T06:48:09.030Z,26.55
2023-04-15T06:50:35.793Z,29.63
2023-04-15T06:53:03.031Z,24.15
2023-04-15T06:55:29.809Z,24.38
2023-04-15T06:57:56.321Z,27.88
2023-04-15T07:00:22.978Z,23.88
2023-04-15T07:02:49.493Z,26.00
2023-04-15T07:05:16.318Z,24.48
2023-04-15T07:07:42.809Z,26.75
2023-04-15T07:10:09.993Z,25.15
2023-04-15T07:12:36.580Z,26.92
2023-04-15T07:15:03.557Z,24.98
2023-04-15T07:17:30.090Z,20.40
2023-04-15T07:19:56.722Z,26.10
2023-04-15T07:22:23.185Z,20.98
2023-04-15T07:24:49.635Z,22.55
2023-04-15T07:27:16.428Z,24.30
2023-04-15T07:29:42.893Z,25.70
2023-04-15T07:32:10.763Z,23.38
2023-04-15T07:34:38.013Z,24.42
2023-04-15T07:37:04.455Z,26.20
2023-04-15T07:39:31.186Z,28.70
2023-04-15T07:41:59.093Z,31.42
2023-04-15T07:44:27.139Z,24.40
2023-04-15T07:46:53.992Z,21.40
2023-04-15T07:49:21.423Z,21.33
2023-04-15T07:51:49.044Z,21.25
2023-04-15T07:54:16.272Z,31.23
2023-04-15T07:56:42.752Z,24.67
2023-04-15T07:59:10.061Z,23.85
2023-04-15T08:01:36.871Z,24.25
2023-04-15T08:04:03.838Z,25.80
2023-04-15T08:06:30.994Z,23.58
2023-04-15T08:08:57.557Z,22.95
2023-04-15T08:11:24.554Z,26.35
2023-04-15T08:13:52.406Z,26.65
2023-04-15T08:16:20.698Z,25.38
2023-04-15T08:18:48.743Z,26.02
2023-04-15T08:21:16.583Z,24.13
2023-04-15T08:23:43.832Z,23.63
2023-04-15T08:26:10.590Z,23.55
2023-04-15T08:28:41.549Z,24.33
2023-04-15T08:31:08.661Z,20.80
2023-04-15T08:33:35.407Z,22.30
2023-04-15T08:36:02.103Z,26.05
2023-04-15T08:38:28.548Z,27.15
2023-04-15T08:40:58.567Z,26.58
2023-04-15T08:43:30.336Z,27.42
2023-04-15T08:46:00.180Z,28.05
2023-04-15T08:48:29.264Z,25.90
2023-04-15T08:50:55.793Z,27.50
2023-04-15T08:53:22.291Z,24.85
2023-04-15T08:55:52.179Z,27.58
2023-04-15T08:58:19.804Z,23.92
2023-04-15T09:00:46.613Z,25.90
2023-04-15T09:03:13.676Z,26.20
2023-04-15T09:05:40.278Z,23.50
2023-04-15T09:08:06.791Z,25.67
2023-04-15T09:10:33.858Z,25.75
2023-04-15T09:13:02.084Z,26.45
2023-04-15T09:15:29.845Z,25.23
2023-04-15T09:17:57.081Z,25.20
2023-04-15T09:20:23.797Z,32.83
2023-04-15T09:22:51.926Z,27.42
2023-04-15T09:25:21.495Z,27.50
2023-04-15T09:27:52.190Z,25.50
2023-04-15T09:30:18.695Z,28.67
2023-04-15T09:32:51.229Z,27.02
2023-04-15T09:35:18.444Z,23.80
2023-04-15T09:37:44.973Z,26.40
2023-04-15T09:40:12.469Z,24.75
2023-04-15T09:42:56.092Z,29.30
2023-04-15T09:45:24.507Z,24.92
2023-04-15T09:47:52.747Z,24.70
2023-04-15T09:50:20.898Z,29.80
2023-04-15T09:52:47.635Z,24.63
2023-04-15T09:55:15.899Z,30.05
2023-04-15T09:57:44.321Z,25.10
2023-04-15T10:00:11.425Z,26.98
2023-04-15T10:02:40.702Z,26.67
2023-04-15T10:05:08.712Z,23.80
2023-04-15T10:07:35.331Z,24.80
2023-04-15T10:10:03.673Z,24.13
2023-04-15T10:12:31.673Z,29.80
2023-04-15T10:18:43.325Z,27.83
2023-04-15T10:21:10.229Z,26.02
2023-04-15T10:23:37.102Z,28.75
2023-04-15T10:26:04.937Z,25.48
2023-04-15T10:28:31.476Z,24.23
2023-04-15T10:30:59.709Z,27.70
2023-04-15T10:33:27.663Z,29.13
2023-04-15T10:35:56.157Z,27.63
2023-04-15T10:38:39.378Z,27.83
2023-04-15T10:41:34.441Z,26.40
2023-04-15T10:44:05.152Z,27.52
2023-04-15T10:46:40.413Z,28.92
2023-04-15T10:49:12.974Z,28.90
2023-04-15T10:51:42.107Z,27.30
2023-04-15T10:54:16.250Z,27.70
2023-04-15T10:56:43.910Z,25.70
2023-04-15T10:59:10.817Z,28.27
2023-04-15T11:01:54.291Z,24.20
2023-04-15T11:05:00.955Z,30.58
2023-04-15T11:07:38.241Z,27.70
2023-04-15T11:10:31.002Z,24.45
2023-04-15T11:12:59.134Z,30.17
2023-04-15T11:15:38.901Z,25.70
2023-04-15T11:18:10.728Z,28.85
2023-04-15T11:20:39.100Z,27.88
2023-04-15T11:23:14.111Z,28.17
2023-04-15T11:25:43.367Z,27.40
2023-04-15T11:28:12.161Z,29.58
2023-04-15T11:30:40.212Z,26.85
2023-04-15T11:33:10.832Z,28.42
2023-04-15T11:35:37.311Z,26.48
2023-04-15T11:38:05.352Z,28.98
2023-04-15T11:40:33.489Z,28.77
2023-04-15T11:43:05.793Z,27.67
2023-04-15T11:45:32.454Z,30.70
2023-04-15T11:48:10.571Z,30.48
2023-04-15T11:50:40.550Z,30.15
2023-04-15T11:53:12.103Z,30.95
2023-04-15T11:55:47.247Z,28.85
2023-04-15T11:58:21.370Z,31.40
2023-04-15T12:00:56.863Z,33.00
2023-04-15T12:03:32.148Z,30.80
2023-04-15T12:06:15.078Z,32.20
2023-04-15T12:09:12.456Z,32.10
2023-04-15T12:11:47.456Z,33.38
2023-04-15T12:14:32.679Z,32.63
2023-04-15T12:17:02.085Z,31.67
2023-04-15T12:19:30.781Z,30.23
2023-04-15T12:22:11.144Z,39.65
2023-04-15T12:24:38.738Z,36.42
2023-04-15T12:27:12.500Z,31.58
2023-04-15T12:29:40.592Z,40.47
2023-04-15T12:32:09.167Z,32.08
2023-04-15T12:34:38.077Z,30.40
2023-04-15T12:37:06.784Z,31.85
2023-04-15T12:39:38.432Z,28.80
2023-04-15T12:44:33.042Z,31.30
2023-04-15T12:47:00.166Z,30.88
2023-04-15T12:49:27.233Z,29.52
2023-04-15T12:51:55.700Z,26.50
2023-04-15T12:54:22.721Z,26.85
2023-04-15T12:56:50.406Z,27.23
2023-04-15T12:59:20.548Z,24.90
2023-04-15T13:01:48.911Z,25.95
2023-04-15T13:04:17.045Z,25.17
2023-04-15T13:06:44.035Z,26.23
2023-04-15T13:09:10.788Z,22.33
2023-04-15T13:11:37.539Z,22.88
2023-04-15T13:14:06.332Z,26.88
2023-04-15T13:16:34.247Z,25.90
2023-04-15T13:19:02.290Z,23.83
2023-04-15T13:21:29.347Z,20.45
2023-04-15T13:23:56.186Z,21.05
2023-04-15T13:26:22.699Z,24.38
2023-04-15T13:28:49.181Z,25.92
2023-04-15T13:31:15.824Z,23.27
2023-04-15T13:33:42.266Z,22.48
2023-04-15T13:36:09.071Z,21.27
2023-04-15T13:38:35.666Z,18.90
2023-04-15T13:41:02.431Z,21.23
2023-04-15T13:43:29.139Z,21.30
2023-04-15T13:45:56.609Z,22.05
2023-04-15T13:48:23.176Z,22.02
2023-04-15T13:50:50.099Z,20.27
2023-04-15T13:53:17.122Z,21.73
2023-04-15T13:55:44.035Z,26.75
2023-04-15T13:58:11.483Z,21.20
2023-04-15T14:00:38.137Z,20.55
2023-04-15T14:03:04.997Z,22.80
2023-04-15T14:05:32.908Z,23.25
2023-04-15T14:08:00.139Z,20.80
2023-04-15T14:10:26.667Z,21.42
2023-04-15T14:12:53.191Z,19.48
2023-04-15T14:15:19.630Z,21.50
2023-04-15T14:17:46.300Z,17.38
2023-04-15T14:20:13.980Z,20.88
2023-04-15T14:22:42.876Z,16.77
2023-04-15T14:25:10.539Z,20.02
2023-04-15T14:27:39.853Z,18.90
2023-04-15T14:30:07.095Z,19.27
2023-04-15T14:32:33.849Z,18.00
2023-04-15T14:35:00.469Z,17.38
2023-04-15T14:37:27.399Z,18.45
2023-04-15T14:39:53.828Z,17.38
2023-04-15T14:42:20.428Z,21.17
2023-04-15T14:44:46.922Z,19.67
2023-04-15T14:47:13.471Z,17.42
2023-04-15T14:49:39.950Z,18.52
2023-04-15T14:52:06.452Z,22.75
2023-04-15T14:54:33.024Z,17.42
2023-04-15T14:56:59.450Z,23.70
2023-04-15T14:59:26.134Z,21.00
2023-04-15T15:01:53.072Z,19.52
2023-04-15T15:04:19.769Z,20.73
2023-04-15T15:06:48.637Z,19.75
2023-04-15T15:09:15.686Z,21.02
2023-04-15T15:11:42.151Z,18.42
2023-04-15T15:14:08.905Z,22.42
2023-04-15T15:16:35.731Z,22.70
2023-04-15T15:19:02.507Z,19.88
2023-04-15T15:21:29.292Z,22.38
2023-04-15T15:23:55.845Z,17.38
2023-04-15T15:26:22.414Z,19.60
2023-04-15T15:28:50.763Z,24.17
2023-04-15T15:31:17.382Z,20.33
2023-04-15T15:33:43.962Z,17.95
2023-04-15T15:36:11.190Z,18.25
2023-04-15T15:38:37.696Z,16.17
2023-04-15T15:41:05.236Z,20.27
2023-04-15T15:43:31.747Z,15.50
2023-04-15T15:45:58.600Z,20.13
2023-04-15T15:48:25.455Z,17.35
2023-04-15T15:50:52.060Z,17.88
2023-04-15T15:53:20.819Z,19.13
2023-04-15T15:55:48.326Z,18.85
2023-04-15T15:58:15.528Z,20.10
2023-04-15T16:00:42.895Z,21.98
2023-04-15T16:03:09.816Z,16.75
2023-04-15T16:05:38.026Z,19.98
2023-04-15T16:08:05.139Z,17.38
2023-04-15T16:10:31.751Z,16.70
2023-04-15T16:12:58.305Z,15.82
2023-04-15T16:15:26.230Z,15.45
2023-04-15T16:17:52.843Z,18.45
2023-04-15T16:20:19.651Z,17.95
2023-04-15T16:22:46.119Z,19.35
2023-04-15T16:25:12.569Z,21.92
2023-04-15T16:30:09.908Z,22.27
2023-04-15T16:32:36.758Z,21.23
2023-04-15T16:35:03.887Z,20.77
2023-04-15T16:37:31.405Z,19.17
2023-04-15T16:39:57.821Z,18.75
2023-04-15T16:42:24.340Z,20.77
2023-04-15T16:44:51.000Z,22.75
2023-04-15T16:47:17.640Z,27.33
2023-04-15T16:49:44.372Z,19.73
2023-04-15T16:52:10.884Z,23.40
2023-04-15T16:54:41.281Z,20.13
2023-04-15T16:57:08.449Z,18.70
2023-04-15T16:59:35.000Z,22.15
2023-04-15T17:02:01.481Z,19.77
2023-04-15T17:04:28.688Z,17.88
2023-04-15T17:06:55.400Z,21.45
2023-04-15T17:09:21.824Z,15.48
2023-04-15T17:11:48.328Z,19.63
2023-04-15T17:14:15.024Z,19.27
2023-04-15T17:16:43.119Z,24.67
2023-04-15T17:19:09.586Z,17.63
2023-04-15T17:21:36.089Z,18.38
2023-04-15T17:24:02.668Z,16.73
2023-04-15T17:26:29.202Z,20.20
2023-04-15T17:28:55.733Z,18.55
2023-04-15T17:31:22.280Z,18.73
2023-04-15T17:34:00.385Z,16.90
2023-04-15T17:36:30.875Z,18.08
2023-04-15T17:38:57.398Z,31.23
2023-04-15T17:41:24.443Z,23.83
2023-04-15T17:43:51.125Z,16.17
2023-04-15T17:46:19.304Z,17.27
2023-04-15T17:48:46.432Z,16.00
2023-04-15T17:51:13.284Z,20.23
2023-04-15T17:53:39.965Z,15.32
2023-04-15T17:56:06.613Z,17.88
2023-04-15T17:58:33.195Z,17.48
2023-04-15T18:00:59.639Z,20.00
2023-04-15T18:03:26.741Z,18.13
2023-04-15T18:05:53.398Z,20.33
2023-04-15T18:08:19.955Z,20.80
2023-04-15T18:10:46.426Z,20.50
2023-04-15T18:13:12.929Z,20.20
2023-04-15T18:15:39.458Z,22.48
2023-04-15T18:18:05.963Z,22.23
2023-04-15T18:20:33.474Z,23.10
2023-04-15T18:23:00.205Z,21.88
2023-04-15T18:25:26.846Z,21.00
2023-04-15T18:27:54.624Z,27.70
2023-04-15T18:30:21.236Z,19.63
2023-04-15T18:32:47.738Z,21.67
2023-04-15T18:35:14.236Z,22.90
2023-04-15T18:37:41.325Z,22.73
2023-04-15T18:40:08.649Z,22.90
2023-04-15T18:42:35.287Z,23.73
2023-04-15T18:45:02.341Z,21.90
2023-04-15T18:47:28.826Z,23.20
2023-04-15T18:49:55.399Z,25.45
2023-04-15T18:52:21.895Z,26.58
2023-04-15T18:54:48.748Z,21.90
2023-04-15T18:57:20.483Z,24.45
2023-04-15T18:59:57.792Z,21.83
2023-04-15T19:02:24.540Z,19.83
2023-04-15T19:04:51.104Z,22.60
2023-04-15T19:07:17.669Z,19.63
2023-04-15T19:09:44.148Z,26.20
2023-04-15T19:12:10.667Z,19.83
2023-04-15T19:14:37.305Z,20.70
2023-04-15T19:17:03.962Z,24.20
2023-04-15T19:19:30.499Z,22.83
2023-04-15T19:21:57.535Z,19.20
2023-04-15T19:24:24.190Z,23.75
2023-04-15T19:26:51.150Z,20.88
2023-04-15T19:29:18.304Z,24.45
2023-04-15T19:31:45.210Z,23.58
2023-04-15T19:34:11.640Z,23.08
2023-04-15T19:36:38.108Z,21.98
2023-04-15T19:39:06.018Z,23.55
2023-04-15T19:41:32.745Z,22.65
2023-04-15T19:43:59.709Z,23.17
2023-04-15T19:46:26.771Z,27.40
2023-04-15T19:48:54.326Z,25.85
2023-04-15T19:51:20.813Z,24.90
2023-04-15T19:53:49.527Z,29.98
2023-04-15T19:56:16.252Z,30.30
2023-04-15T19:58:46.581Z,29.75
2023-04-15T20:01:13.068Z,33.08
2023-04-15T20:03:39.715Z,33.72
2023-04-15T20:06:06.322Z,34.15
2023-04-15T20:08:32.791Z,36.38
2023-04-15T20:10:59.513Z,39.67
2023-04-15T20:13:26.008Z,37.80
2023-04-15T20:15:52.671Z,43.60
2023-04-15T20:18:19.200Z,43.97
2023-04-15T20:20:46.363Z,46.33
2023-04-15T20:23:12.848Z,47.67
2023-04-15T20:25:39.502Z,45.05
2023-04-15T20:28:06.148Z,48.47
2023-04-15T20:30:32.694Z,50.78
2023-04-15T20:32:59.734Z,47.63
2023-04-15T20:35:28.217Z,49.17
2023-04-15T20:37:54.792Z,47.63
2023-04-15T20:40:21.590Z,46.40
2023-04-15T20:42:48.560Z,49.88
2023-04-15T20:45:15.321Z,55.58
2023-04-15T20:47:41.924Z,51.67
2023-04-15T20:50:09.041Z,45.55
2023-04-15T20:52:35.678Z,49.58
2023-04-15T20:55:02.217Z,48.05
2023-04-15T20:57:30.170Z,44.35
2023-04-15T20:59:56.690Z,47.55
2023-04-15T21:02:24.125Z,47.03
2023-04-15T21:04:50.868Z,50.70
2023-04-15T21:07:17.282Z,48.92
2023-04-15T21:09:43.826Z,48.67
2023-04-15T21:12:11.148Z,47.78
2023-04-15T21:14:38.170Z,49.00
2023-04-15T21:17:09.240Z,52.17
2023-04-15T21:19:37.371Z,50.83
2023-04-15T21:22:04.348Z,49.10
2023-04-15T21:24:30.926Z,49.03
2023-04-15T21:26:57.553Z,48.70
2023-04-15T21:29:24.230Z,48.25
2023-04-15T21:31:50.771Z,49.25
2023-04-15T21:34:17.563Z,47.38
2023-04-15T21:36:44.039Z,52.15
2023-04-15T21:39:10.745Z,48.67
2023-04-15T21:41:37.588Z,50.90
2023-04-15T21:44:04.317Z,54.60
2023-04-15T21:46:32.743Z,50.75
2023-04-15T21:49:01.686Z,50.10
2023-04-15T21:51:28.185Z,47.10
2023-04-15T21:53:54.700Z,45.05
2023-04-15T21:56:23.164Z,49.38
2023-04-15T21:58:49.687Z,49.95
2023-04-15T22:01:16.859Z,49.85
2023-04-15T22:03:43.653Z,53.13
2023-04-15T22:06:10.486Z,50.13
2023-04-15T22:08:48.339Z,49.13
2023-04-15T22:11:26.355Z,51.10
2023-04-15T22:13:59.323Z,46.35
2023-04-15T22:16:26.355Z,51.70
2023-04-15T22:18:53.519Z,46.92
2023-04-15T22:21:20.019Z,51.63
2023-04-15T22:23:47.644Z,49.53
2023-04-15T22:26:14.376Z,46.92
2023-04-15T22:28:40.978Z,47.97
2023-04-15T22:31:07.512Z,49.38
2023-04-15T22:33:34.080Z,46.17
2023-04-15T22:36:00.617Z,45.88
2023-04-15T22:38:27.066Z,51.13
2023-04-15T22:40:53.996Z,44.15
2023-04-15T22:43:20.670Z,51.63
2023-04-15T22:45:51.226Z,47.90
2023-04-15T22:48:18.755Z,52.75
2023-04-15T22:50:45.648Z,50.15
2023-04-15T22:53:12.227Z,47.35
2023-04-15T22:55:38.712Z,48.35
2023-04-15T22:58:05.213Z,49.17
2023-04-15T23:00:31.660Z,48.28
2023-04-15T23:02:58.304Z,45.63
2023-04-15T23:05:25.025Z,50.97
2023-04-15T23:07:51.541Z,52.28
2023-04-15T23:10:18.044Z,54.28
2023-04-15T23:12:44.481Z,51.70
2023-04-15T23:15:11.589Z,54.25
2023-04-15T23:17:38.223Z,55.25
2023-04-15T23:20:05.026Z,66.28
2023-04-15T23:22:31.542Z,62.50
2023-04-15T23:24:58.007Z,55.88
2023-04-15T23:27:24.444Z,59.15
2023-04-15T23:29:50.898Z,57.97
2023-04-15T23:32:17.404Z,61.92
2023-04-15T23:34:43.863Z,60.47
2023-04-15T23:37:10.456Z,64.88
2023-04-15T23:39:36.887Z,63.33
2023-04-15T23:42:03.739Z,67.40
2023-04-15T23:44:30.320Z,62.97
2023-04-15T23:46:56.757Z,60.90
2023-04-15T23:49:23.220Z,68.05
2023-04-15T23:51:49.691Z,68.90
2023-04-15T23:54:16.137Z,64.05
2023-04-15T23:56:42.621Z,66.47
2023-04-15T23:59:09.319Z,59.75
